Time;durP1;ratioP1;P1;durP2;ratioP2;P2;SDS_P1;SDS_P2;PMS_P1;PMS_P2;Temp;Humidity;BMP_temperature;BMP_pressure;BME280_temperature;BME280_humidity;BME280_pressure;Samples;Min_cycle;Max_cycle;Signal;HPM_P1;HPM_P2
2023/01/07 00:00:52;;;;;;;46.40;33.45;;;3.10;99.90;;;;;;5018533;28;20026;-81
2023/01/07 00:03:18;;;;;;;45.88;32.03;;;3.10;99.90;;;;;;5013759;28;20061;-81
2023/01/07 00:05:44;;;;;;;46.47;32.03;;;3.10;99.90;;;;;;5000752;28;20506;-81
2023/01/07 00:08:11;;;;;;;40.75;30.60;;;3.10;99.90;;;;;;5001218;28;20038;-81
2023/01/07 00:10:37;;;;;;;38.55;30.73;;;3.10;99.90;;;;;;5002463;28;20032;-81
2023/01/07 00:13:02;;;;;;;41.38;30.55;;;3.10;99.90;;;;;;4997559;28;20026;-81
2023/01/07 00:15:28;;;;;;;43.08;30.60;;;3.10;99.90;;;;;;5002159;28;20014;-81
2023/01/07 00:17:54;;;;;;;38.03;29.25;;;3.10;99.90;;;;;;5002016;28;20038;-82
2023/01/07 00:20:20;;;;;;;37.97;28.15;;;3.10;99.90;;;;;;5002730;28;20033;-81
2023/01/07 00:22:46;;;;;;;42.25;27.77;;;3.10;99.90;;;;;;5013790;28;20026;-81
2023/01/07 00:25:11;;;;;;;38.63;28.85;;;3.10;99.90;;;;;;5019636;28;20029;-81
2023/01/07 00:27:37;;;;;;;35.03;27.45;;;3.10;99.90;;;;;;5013029;28;20045;-81
2023/01/07 00:30:03;;;;;;;41.67;28.15;;;3.10;99.90;;;;;;5002237;28;20019;-81
2023/01/07 00:35:22;;;;;;;39.33;28.63;;;3.20;99.90;;;;;;5016969;28;20025;-82
2023/01/07 00:37:50;;;;;;;46.00;30.05;;;3.40;99.90;;;;;;5001301;28;20560;-82
2023/01/07 00:40:16;;;;;;;44.05;31.55;;;3.60;99.90;;;;;;5001674;28;20092;-83
2023/01/07 00:42:54;;;;;;;43.10;29.67;;;3.60;99.90;;;;;;5001112;28;20030;-82
2023/01/07 00:45:24;;;;;;;42.22;29.08;;;3.60;99.90;;;;;;5014399;28;20029;-82
2023/01/07 00:47:52;;;;;;;42.97;29.98;;;3.60;99.90;;;;;;5000280;28;20066;-83
2023/01/07 00:50:23;;;;;;;41.78;27.98;;;3.60;99.90;;;;;;4997904;28;20026;-83
2023/01/07 00:52:49;;;;;;;43.22;29.33;;;3.60;99.90;;;;;;5000056;28;20033;-83
2023/01/07 00:55:15;;;;;;;41.50;29.48;;;3.60;99.90;;;;;;5016071;28;20021;-83
2023/01/07 00:57:42;;;;;;;45.17;30.77;;;3.60;99.90;;;;;;5012655;28;20401;-83
2023/01/07 01:00:11;;;;;;;44.85;29.70;;;3.70;99.90;;;;;;5001378;28;20099;-83
2023/01/07 01:02:37;;;;;;;51.55;30.75;;;3.80;99.90;;;;;;5000600;28;20078;-83
2023/01/07 01:05:03;;;;;;;56.38;32.53;;;4.10;99.90;;;;;;5017007;28;20081;-84
2023/01/07 01:07:29;;;;;;;52.05;30.02;;;4.20;99.90;;;;;;5015502;28;20057;-88
2023/01/07 01:09:55;;;;;;;63.53;31.33;;;4.30;99.90;;;;;;5001193;28;20029;-81
2023/01/07 01:12:21;;;;;;;70.82;32.10;;;4.60;99.90;;;;;;5000199;28;20133;-83
2023/01/07 01:14:47;;;;;;;72.50;33.78;;;4.90;99.90;;;;;;5018754;28;20022;-84
2023/01/07 01:17:13;;;;;;;74.20;34.60;;;5.20;99.90;;;;;;5014448;28;20085;-84
2023/01/07 01:19:39;;;;;;;84.18;36.40;;;5.40;99.90;;;;;;5001683;28;20026;-84
2023/01/07 01:22:05;;;;;;;75.40;33.00;;;5.40;99.90;;;;;;4995681;28;20069;-81
2023/01/07 01:24:31;;;;;;;77.60;33.05;;;5.60;99.90;;;;;;5018370;28;20049;-81
2023/01/07 01:26:56;;;;;;;89.82;37.92;;;5.90;99.90;;;;;;5009935;28;20101;-83
2023/01/07 01:29:22;;;;;;;81.53;35.97;;;5.90;99.90;;;;;;5016119;28;20100;-82
2023/01/07 01:31:49;;;;;;;82.70;34.42;;;6.00;99.90;;;;;;5012290;28;20050;-84
2023/01/07 01:34:15;;;;;;;78.32;35.25;;;6.10;99.90;;;;;;4998571;28;20080;-83
2023/01/07 01:36:41;;;;;;;75.90;36.70;;;6.30;99.90;;;;;;5014530;28;20113;-83
2023/01/07 01:39:06;;;;;;;78.72;34.65;;;6.40;99.90;;;;;;5015873;28;20018;-85
2023/01/07 01:41:32;;;;;;;66.85;33.40;;;6.40;99.90;;;;;;5010572;28;20038;-84
2023/01/07 01:43:58;;;;;;;72.90;32.92;;;6.50;99.90;;;;;;5016660;28;20033;-84
2023/01/07 01:46:38;;;;;;;64.43;31.42;;;6.50;99.90;;;;;;4996972;28;20034;-85
2023/01/07 01:49:13;;;;;;;60.80;29.03;;;6.60;99.90;;;;;;4995136;28;20030;-86
2023/01/07 01:51:44;;;;;;;44.83;24.80;;;6.70;99.90;;;;;;5012312;28;20637;-84
2023/01/07 01:54:13;;;;;;;57.75;27.30;;;6.90;99.90;;;;;;5000189;28;20541;-83
2023/01/07 01:56:42;;;;;;;46.67;23.80;;;6.90;99.90;;;;;;4975297;28;20033;-80
2023/01/07 01:59:14;;;;;;;42.75;23.38;;;7.00;99.90;;;;;;4994623;28;20038;-81
2023/01/07 02:01:40;;;;;;;40.70;21.80;;;7.10;99.90;;;;;;4998513;28;20441;-82
2023/01/07 02:04:10;;;;;;;33.33;20.77;;;7.10;99.90;;;;;;5014678;28;20030;-82
2023/01/07 02:06:43;;;;;;;34.45;21.25;;;7.20;99.90;;;;;;4996604;28;20030;-83
2023/01/07 02:09:13;;;;;;;32.85;22.17;;;7.20;99.90;;;;;;5013439;28;20371;-84
2023/01/07 02:12:10;;;;;;;33.17;21.45;;;7.20;99.90;;;;;;4999444;28;20060;-81
2023/01/07 02:14:47;;;;;;;30.05;18.58;;;7.20;99.90;;;;;;5013399;28;20019;-82
2023/01/07 02:17:35;;;;;;;29.10;19.85;;;7.30;99.90;;;;;;5013493;28;20030;-79
2023/01/07 02:20:25;;;;;;;29.08;19.42;;;7.20;99.90;;;;;;5011395;28;20029;-84
2023/01/07 02:23:06;;;;;;;;;;;7.20;99.90;;;;;;5010767;28;20030;-81
2023/01/07 02:25:36;;;;;;;23.33;16.45;;;7.30;99.90;;;;;;5017232;28;19928;-80
2023/01/07 02:28:31;;;;;;;28.38;17.73;;;7.30;99.90;;;;;;5009336;28;20030;-79
2023/01/07 02:31:17;;;;;;;22.80;16.23;;;7.40;99.90;;;;;;5015400;28;20397;-83
2023/01/07 02:33:50;;;;;;;22.77;15.45;;;7.40;99.90;;;;;;4963662;28;20041;-78
2023/01/07 02:36:43;;;;;;;22.48;16.42;;;7.50;99.90;;;;;;4997366;28;20081;-80
2023/01/07 02:39:27;;;;;;;22.73;15.30;;;7.50;99.90;;;;;;5015075;28;20026;-82
2023/01/07 02:42:12;;;;;;;25.05;16.08;;;7.60;99.90;;;;;;5013823;28;20037;-80
2023/01/07 02:44:38;;;;;;;20.98;15.80;;;7.50;99.90;;;;;;5012515;28;20053;-80
2023/01/07 02:47:12;;;;;;;19.70;13.82;;;7.50;99.90;;;;;;5009849;28;20391;-79
2023/01/07 02:49:38;;;;;;;19.17;14.27;;;7.60;99.90;;;;;;5011999;28;20026;-78
2023/01/07 02:52:20;;;;;;;20.10;14.88;;;7.70;99.90;;;;;;4999049;28;20064;-80
2023/01/07 02:54:58;;;;;;;20.15;14.50;;;7.70;99.90;;;;;;4995166;28;20024;-80
2023/01/07 02:57:37;;;;;;;19.65;15.07;;;7.80;99.90;;;;;;4998890;28;20029;-79
2023/01/07 03:00:25;;;;;;;20.10;15.35;;;7.80;99.90;;;;;;5012905;28;20041;-78
2023/01/07 03:03:07;;;;;;;17.58;14.63;;;7.70;99.90;;;;;;5012220;28;20080;-79
2023/01/07 03:05:47;;;;;;;20.33;15.07;;;7.80;99.90;;;;;;4993076;28;20030;-81
2023/01/07 03:08:25;;;;;;;18.40;14.55;;;7.80;99.90;;;;;;4997380;28;20089;-79
2023/01/07 03:10:59;;;;;;;18.33;13.23;;;7.70;99.90;;;;;;5013485;28;20078;-78
2023/01/07 03:13:33;;;;;;;18.40;14.32;;;7.70;99.90;;;;;;5013483;28;20046;-79
2023/01/07 03:16:11;;;;;;;20.42;15.48;;;7.80;99.90;;;;;;5014995;28;20018;-81
2023/01/07 03:18:45;;;;;;;22.42;15.52;;;7.90;99.90;;;;;;5012555;28;20026;-82
2023/01/07 03:21:14;;;;;;;20.65;14.63;;;7.80;99.90;;;;;;4998968;28;20400;-81
2023/01/07 03:23:46;;;;;;;17.67;14.23;;;7.80;99.90;;;;;;4995359;28;20083;-81
2023/01/07 03:26:14;;;;;;;21.58;15.10;;;7.80;99.90;;;;;;5013296;28;20470;-80
2023/01/07 03:28:41;;;;;;;16.27;13.88;;;7.80;99.90;;;;;;5011706;28;20049;-83
2023/01/07 03:31:12;;;;;;;20.15;14.98;;;7.80;99.90;;;;;;5009047;28;20022;-81
2023/01/07 03:33:46;;;;;;;22.75;14.73;;;7.80;99.90;;;;;;5007124;28;20018;-82
2023/01/07 03:36:18;;;;;;;19.60;13.95;;;7.80;99.90;;;;;;4997476;28;20026;-78
2023/01/07 03:38:45;;;;;;;18.05;13.55;;;7.70;99.90;;;;;;5013318;28;20024;-81
2023/01/07 03:42:38;;;;;;;19.67;14.43;;;7.70;99.90;;;;;;5015152;28;20105;-79
2023/01/07 03:43:57;;;;;;;17.10;13.68;;;7.80;99.90;;;;;;5014908;28;20375;-79
2023/01/07 03:46:23;;;;;;;18.55;14.15;;;7.70;99.90;;;;;;5012584;28;20034;-81
2023/01/07 03:48:49;;;;;;;22.20;14.50;;;7.70;99.90;;;;;;5008072;28;20080;-82
2023/01/07 03:51:15;;;;;;;19.20;14.23;;;7.80;99.90;;;;;;5013866;28;20033;-82
2023/01/07 03:53:41;;;;;;;18.83;14.45;;;7.80;99.90;;;;;;5009452;28;20028;-79
2023/01/07 03:56:07;;;;;;;16.85;13.00;;;7.80;99.90;;;;;;5013851;28;20026;-82
2023/01/07 03:58:33;;;;;;;15.65;12.60;;;7.90;99.90;;;;;;5011212;28;20037;-81
2023/01/07 04:00:58;;;;;;;16.13;13.73;;;8.00;99.90;;;;;;5013835;28;20030;-81
2023/01/07 04:03:24;;;;;;;19.85;14.80;;;7.90;99.90;;;;;;5013531;28;20034;-80
2023/01/07 04:05:50;;;;;;;18.48;13.80;;;7.90;99.90;;;;;;5015167;28;20112;-81
2023/01/07 04:08:16;;;;;;;19.58;14.63;;;7.90;99.90;;;;;;5014780;28;20385;-81
2023/01/07 04:10:42;;;;;;;14.60;11.63;;;7.80;99.90;;;;;;5015681;28;20100;-81
2023/01/07 04:13:08;;;;;;;17.20;13.30;;;7.90;99.90;;;;;;4998774;28;20660;-80
2023/01/07 04:15:33;;;;;;;18.13;12.75;;;7.90;99.90;;;;;;4998820;28;20117;-80
2023/01/07 04:17:59;;;;;;;17.20;14.07;;;8.00;99.90;;;;;;4998032;28;20168;-80
2023/01/07 04:20:25;;;;;;;15.45;12.48;;;7.90;99.90;;;;;;5016894;28;20057;-78
2023/01/07 04:22:51;;;;;;;19.92;13.20;;;7.90;99.90;;;;;;5016314;28;20097;-82
2023/01/07 04:25:16;;;;;;;15.63;12.40;;;7.90;99.90;;;;;;5019344;28;20058;-81
2023/01/07 04:27:42;;;;;;;19.23;13.38;;;8.00;99.90;;;;;;5009760;28;20032;-80
2023/01/07 04:30:09;;;;;;;16.08;12.98;;;8.00;99.90;;;;;;5001936;28;20026;-79
2023/01/07 04:32:34;;;;;;;15.13;11.90;;;7.90;99.90;;;;;;5009931;28;20040;-79
2023/01/07 04:35:00;;;;;;;17.48;13.02;;;8.00;99.90;;;;;;5000380;28;20117;-78
2023/01/07 04:37:26;;;;;;;17.50;13.55;;;8.10;99.90;;;;;;5001178;28;20112;-79
2023/01/07 04:39:52;;;;;;;16.33;13.93;;;8.10;99.90;;;;;;5001644;28;20095;-78
2023/01/07 04:42:18;;;;;;;15.57;12.63;;;8.10;99.90;;;;;;5015898;28;20030;-78
2023/01/07 04:44:44;;;;;;;15.65;12.57;;;8.00;99.90;;;;;;5019266;28;20052;-81
2023/01/07 04:47:09;;;;;;;17.65;11.32;;;8.10;99.90;;;;;;5000640;28;20022;-79
2023/01/07 04:49:35;;;;;;;14.32;11.98;;;8.00;99.90;;;;;;5014737;28;20026;-80
2023/01/07 04:52:02;;;;;;;15.45;12.00;;;8.00;99.90;;;;;;5001124;28;20018;-79
2023/01/07 04:54:28;;;;;;;14.88;11.45;;;8.00;99.90;;;;;;4998151;28;20053;-80
2023/01/07 04:56:55;;;;;;;19.20;11.13;;;8.00;99.90;;;;;;5000630;28;20441;-78
2023/01/07 04:59:21;;;;;;;12.20;10.77;;;8.10;99.90;;;;;;4999046;28;20037;-80
2023/01/07 05:01:47;;;;;;;14.57;11.88;;;8.10;99.90;;;;;;5015262;28;20029;-79
2023/01/07 05:04:13;;;;;;;15.48;11.15;;;8.00;99.90;;;;;;5017425;28;20036;-81
2023/01/07 05:06:39;;;;;;;13.68;10.50;;;8.10;99.90;;;;;;5000789;28;20084;-81
2023/01/07 05:09:04;;;;;;;17.25;11.35;;;8.10;99.90;;;;;;5001071;28;20044;-80
2023/01/07 05:11:30;;;;;;;14.07;10.25;;;8.00;99.90;;;;;;5016730;28;20498;-78
2023/01/07 05:13:59;;;;;;;15.75;10.63;;;8.00;99.90;;;;;;5000922;28;20026;-81
2023/01/07 05:16:25;;;;;;;14.23;10.98;;;8.10;99.90;;;;;;5016819;28;20018;-79
2023/01/07 05:18:50;;;;;;;13.85;10.88;;;8.10;99.90;;;;;;5017629;28;20113;-82
2023/01/07 05:21:16;;;;;;;13.65;11.23;;;8.10;99.90;;;;;;5000270;28;20125;-80
2023/01/07 05:23:43;;;;;;;12.77;10.60;;;8.00;99.90;;;;;;4995343;28;20065;-81
2023/01/07 05:26:09;;;;;;;12.02;10.45;;;8.00;99.90;;;;;;5016502;28;20056;-82
2023/01/07 05:28:35;;;;;;;13.68;10.10;;;8.10;99.90;;;;;;5010789;28;20034;-81
2023/01/07 05:31:01;;;;;;;11.82;10.23;;;8.10;99.90;;;;;;5015332;28;20047;-78
2023/01/07 05:33:27;;;;;;;12.32;10.70;;;8.10;99.90;;;;;;5008424;28;20033;-82
2023/01/07 05:35:53;;;;;;;13.45;10.23;;;8.20;99.90;;;;;;4999289;28;20021;-81
2023/01/07 05:38:19;;;;;;;15.38;11.13;;;8.20;99.90;;;;;;4997530;28;20026;-83
2023/01/07 05:40:48;;;;;;;16.00;11.30;;;8.20;99.90;;;;;;4999766;28;20152;-84
2023/01/07 05:43:15;;;;;;;13.93;10.45;;;8.20;99.90;;;;;;5005722;28;20125;-79
2023/01/07 05:45:45;;;;;;;16.92;11.27;;;8.10;99.90;;;;;;5015069;28;20037;-81
2023/01/07 05:48:12;;;;;;;16.43;12.57;;;8.10;99.90;;;;;;5008286;28;20040;-80
2023/01/07 05:50:38;;;;;;;15.80;11.95;;;8.10;99.90;;;;;;4998383;28;20265;-82
2023/01/07 05:53:04;;;;;;;18.13;13.38;;;8.20;99.90;;;;;;4992608;28;20371;-84
2023/01/07 05:55:29;;;;;;;19.13;12.68;;;8.20;99.90;;;;;;5015619;28;20022;-82
2023/01/07 05:57:55;;;;;;;18.98;13.88;;;8.20;99.90;;;;;;5010738;28;20022;-80
2023/01/07 06:00:21;;;;;;;18.27;12.38;;;8.20;99.90;;;;;;5015689;28;20046;-79
2023/01/07 06:02:47;;;;;;;20.52;14.57;;;8.10;99.90;;;;;;4999714;28;20028;-80
2023/01/07 06:05:13;;;;;;;21.15;14.63;;;8.20;99.90;;;;;;5016532;28;20025;-80
2023/01/07 06:07:39;;;;;;;18.75;14.07;;;8.20;99.90;;;;;;5011703;28;20032;-84
2023/01/07 06:10:05;;;;;;;17.27;14.27;;;8.20;99.90;;;;;;5019317;28;20030;-80
2023/01/07 06:12:32;;;;;;;18.48;15.02;;;8.10;99.90;;;;;;5013171;28;20033;-80
2023/01/07 06:14:58;;;;;;;18.27;14.32;;;8.20;99.90;;;;;;5016496;28;20022;-82
2023/01/07 06:17:24;;;;;;;21.52;14.05;;;8.30;99.90;;;;;;4998439;28;20029;-81
2023/01/07 06:19:50;;;;;;;16.10;12.80;;;8.30;99.90;;;;;;4998970;28;20535;-80
2023/01/07 06:22:16;;;;;;;19.90;14.43;;;8.30;99.90;;;;;;4997079;28;20030;-83
2023/01/07 06:24:42;;;;;;;17.77;13.77;;;8.30;99.90;;;;;;4998746;28;20810;-81
2023/01/07 06:27:09;;;;;;;18.92;13.55;;;8.30;99.90;;;;;;5011099;28;20050;-81
2023/01/07 06:29:35;;;;;;;17.15;13.38;;;8.30;99.90;;;;;;4998904;28;20018;-83
2023/01/07 06:32:01;;;;;;;21.63;16.13;;;8.40;99.90;;;;;;4996136;28;20033;-83
2023/01/07 06:34:28;;;;;;;21.27;15.05;;;8.30;99.90;;;;;;4994701;28;20038;-83
2023/01/07 06:36:54;;;;;;;17.77;12.95;;;8.30;99.90;;;;;;5012968;28;20064;-81
2023/01/07 06:39:19;;;;;;;21.50;13.93;;;8.20;99.90;;;;;;5013479;28;20033;-81
2023/01/07 06:41:45;;;;;;;20.98;14.18;;;8.30;99.90;;;;;;5013526;28;20105;-81
2023/01/07 06:44:11;;;;;;;26.98;14.60;;;8.30;99.90;;;;;;5001287;28;20029;-80
2023/01/07 06:46:37;;;;;;;19.83;13.23;;;8.30;99.90;;;;;;5012549;28;20033;-79
2023/01/07 06:49:03;;;;;;;18.00;12.93;;;8.30;99.90;;;;;;5013898;28;20033;-82
2023/01/07 06:51:29;;;;;;;18.83;13.95;;;8.30;99.90;;;;;;4996488;28;20029;-79
2023/01/07 06:53:55;;;;;;;17.15;13.52;;;8.40;99.90;;;;;;5011901;28;20022;-81
2023/01/07 06:56:21;;;;;;;18.30;13.25;;;8.40;99.90;;;;;;5013043;28;20136;-79
2023/01/07 06:58:47;;;;;;;19.63;12.23;;;8.40;99.90;;;;;;5010910;28;20037;-79
2023/01/07 07:01:12;;;;;;;15.63;13.02;;;8.40;99.90;;;;;;5013364;28;20486;-79
2023/01/07 07:03:38;;;;;;;18.23;13.13;;;8.50;99.90;;;;;;4998204;28;20508;-79
2023/01/07 07:06:04;;;;;;;18.48;13.68;;;8.50;99.90;;;;;;5013327;28;20129;-82
2023/01/07 07:08:30;;;;;;;17.00;13.25;;;8.50;99.90;;;;;;4997884;28;20030;-81
2023/01/07 07:10:56;;;;;;;17.00;12.90;;;8.50;99.90;;;;;;5014472;28;20375;-79
2023/01/07 07:13:22;;;;;;;18.52;11.57;;;8.50;99.90;;;;;;5014824;28;20022;-79
2023/01/07 07:15:48;;;;;;;17.15;13.05;;;8.50;99.90;;;;;;5015153;28;20093;-80
2023/01/07 07:18:15;;;;;;;16.48;13.90;;;8.50;99.90;;;;;;4997787;28;20037;-80
2023/01/07 07:20:41;;;;;;;20.83;14.10;;;8.50;99.90;;;;;;5016977;28;20028;-79
2023/01/07 07:23:07;;;;;;;21.35;15.63;;;8.50;99.90;;;;;;5011321;28;20026;-80
2023/01/07 07:25:33;;;;;;;17.23;13.38;;;8.60;99.90;;;;;;4998928;28;20069;-79
2023/01/07 07:27:59;;;;;;;22.98;15.20;;;8.60;99.90;;;;;;5008244;28;20116;-78
2023/01/07 07:30:25;;;;;;;23.10;14.30;;;8.60;99.90;;;;;;4998823;28;20041;-79
2023/01/07 07:32:50;;;;;;;15.63;12.57;;;8.60;99.90;;;;;;4995937;28;20061;-81
2023/01/07 07:35:16;;;;;;;21.65;14.00;;;8.60;99.90;;;;;;4999208;28;20032;-78
2023/01/07 07:37:42;;;;;;;18.13;13.32;;;8.60;99.90;;;;;;5015269;28;20034;-79
2023/01/07 07:40:09;;;;;;;17.38;14.35;;;8.70;99.90;;;;;;5015894;28;20029;-79
2023/01/07 07:42:36;;;;;;;19.52;15.68;;;8.80;99.90;;;;;;4998462;28;20073;-80
2023/01/07 07:45:02;;;;;;;21.10;13.55;;;8.80;99.90;;;;;;4998401;28;20033;-80
2023/01/07 07:47:28;;;;;;;22.60;15.90;;;8.80;99.90;;;;;;5008611;28;20105;-78
2023/01/07 07:49:53;;;;;;;22.60;14.75;;;8.90;99.90;;;;;;4997595;28;20491;-79
2023/01/07 07:52:19;;;;;;;24.88;17.10;;;9.00;99.90;;;;;;5012313;28;20026;-78
2023/01/07 07:54:45;;;;;;;25.50;17.98;;;9.10;99.90;;;;;;5017683;28;20014;-79
2023/01/07 07:57:11;;;;;;;20.33;16.20;;;9.10;99.90;;;;;;5001190;28;20129;-81
2023/01/07 07:59:37;;;;;;;21.17;16.23;;;9.20;99.90;;;;;;5018369;28;20497;-79
2023/01/07 08:02:02;;;;;;;20.75;14.50;;;9.30;99.90;;;;;;5012801;28;20017;-78
2023/01/07 08:04:32;;;;;;;23.70;15.48;;;9.30;99.90;;;;;;5001579;28;20018;-79
2023/01/07 08:06:59;;;;;;;18.70;14.48;;;9.40;99.90;;;;;;5015973;28;20014;-80
2023/01/07 08:09:25;;;;;;;25.15;16.40;;;9.50;99.90;;;;;;5016379;28;20398;-83
2023/01/07 08:11:51;;;;;;;19.27;14.40;;;9.50;99.90;;;;;;5015974;28;20030;-79
2023/01/07 08:14:17;;;;;;;21.02;16.08;;;9.60;99.90;;;;;;5010139;28;20030;-82
2023/01/07 08:16:43;;;;;;;21.77;15.55;;;9.60;99.90;;;;;;4988876;28;20037;-80
2023/01/07 08:19:10;;;;;;;18.48;14.63;;;9.70;99.90;;;;;;5001618;28;20125;-80
2023/01/07 08:21:36;;;;;;;22.30;15.23;;;9.70;99.90;;;;;;5000020;28;20030;-80
2023/01/07 08:24:02;;;;;;;22.63;14.27;;;9.80;99.90;;;;;;4989673;28;20034;-79
2023/01/07 08:26:27;;;;;;;20.10;15.18;;;9.90;99.90;;;;;;4996229;28;20060;-78
2023/01/07 08:28:53;;;;;;;20.48;14.50;;;9.90;99.90;;;;;;5000290;28;20482;-80
2023/01/07 08:31:19;;;;;;;25.85;15.90;;;10.00;99.90;;;;;;4997076;28;20084;-77
2023/01/07 08:33:45;;;;;;;18.70;13.35;;;10.00;99.90;;;;;;4990664;28;20035;-80
2023/01/07 08:36:11;;;;;;;16.85;13.95;;;10.10;99.90;;;;;;4998948;28;20025;-78
2023/01/07 08:38:37;;;;;;;23.17;15.20;;;10.00;99.90;;;;;;5014278;28;20487;-77
2023/01/07 08:41:03;;;;;;;15.05;11.75;;;10.00;99.90;;;;;;4999941;28;20559;-79
2023/01/07 08:43:29;;;;;;;19.77;13.02;;;10.10;99.90;;;;;;5015971;28;20033;-78
2023/01/07 08:45:55;;;;;;;19.42;13.90;;;10.10;99.90;;;;;;5018421;28;20018;-80
2023/01/07 08:48:22;;;;;;;17.00;12.60;;;10.00;99.90;;;;;;5012045;28;20509;-80
2023/01/07 08:50:52;;;;;;;17.83;14.35;;;10.10;99.90;;;;;;4993572;28;20041;-80
2023/01/07 08:53:19;;;;;;;15.98;13.68;;;10.00;99.90;;;;;;5013954;28;20031;-79
2023/01/07 08:55:45;;;;;;;20.80;13.25;;;10.00;99.90;;;;;;5001563;28;20037;-77
2023/01/07 08:58:10;;;;;;;21.25;14.23;;;10.00;99.90;;;;;;4999652;28;20032;-79
2023/01/07 09:00:37;;;;;;;16.50;13.50;;;10.00;99.90;;;;;;5018935;28;20093;-81
2023/01/07 09:03:03;;;;;;;22.25;14.02;;;10.10;99.90;;;;;;4999863;28;20072;-79
2023/01/07 09:05:29;;;;;;;19.42;12.52;;;10.10;99.90;;;;;;5017262;28;20040;-79
2023/01/07 09:07:56;;;;;;;17.63;14.32;;;10.10;99.90;;;;;;4999244;28;20022;-80
2023/01/07 09:10:23;;;;;;;17.20;13.05;;;10.10;99.90;;;;;;5000442;28;20064;-81
2023/01/07 09:12:49;;;;;;;15.25;13.45;;;10.10;99.90;;;;;;5012308;28;20021;-80
2023/01/07 09:15:15;;;;;;;16.45;13.73;;;10.10;99.90;;;;;;4999916;28;20034;-81
2023/01/07 09:17:41;;;;;;;18.52;14.07;;;10.10;99.90;;;;;;5005506;28;20030;-80
2023/01/07 09:20:07;;;;;;;19.08;13.07;;;10.20;99.90;;;;;;5008308;28;20088;-77
2023/01/07 09:22:35;;;;;;;18.92;13.85;;;10.20;99.90;;;;;;4999569;28;20030;-79
2023/01/07 09:25:02;;;;;;;24.75;13.75;;;10.20;99.90;;;;;;4996875;28;20032;-82
2023/01/07 09:27:28;;;;;;;17.15;13.27;;;10.30;99.90;;;;;;4997864;28;20035;-78
2023/01/07 09:29:57;;;;;;;18.77;12.98;;;10.30;99.90;;;;;;5015726;28;20025;-83
2023/01/07 09:32:24;;;;;;;16.70;12.70;;;10.30;99.90;;;;;;5011500;28;20022;-83
2023/01/07 09:34:50;;;;;;;16.02;12.20;;;10.40;99.90;;;;;;5014837;28;20036;-83
2023/01/07 09:37:15;;;;;;;23.80;16.00;;;10.40;99.90;;;;;;4999828;28;20026;-82
2023/01/07 09:39:41;;;;;;;33.95;21.77;;;10.50;99.90;;;;;;5000654;28;20022;-79
2023/01/07 09:42:16;;;;;;;33.40;23.10;;;10.50;99.90;;;;;;5011298;28;20025;-82
2023/01/07 09:45:03;;;;;;;20.27;13.50;;;10.50;99.90;;;;;;5001027;28;20029;-80
2023/01/07 09:47:32;;;;;;;17.55;14.48;;;10.60;99.90;;;;;;4998853;28;20033;-79
2023/01/07 09:50:08;;;;;;;64.90;39.83;;;10.60;99.90;;;;;;5014603;28;20136;-79
2023/01/07 09:52:43;;;;;;;54.33;28.92;;;10.60;99.90;;;;;;5000400;28;20034;-79
2023/01/07 09:55:32;;;;;;;26.55;15.55;;;10.60;99.90;;;;;;5018532;28;20076;-79
2023/01/07 09:57:58;;;;;;;31.10;19.98;;;10.70;99.90;;;;;;4998376;28;20053;-80
2023/01/07 10:00:24;;;;;;;38.15;24.35;;;10.70;99.90;;;;;;5025503;28;20030;-78
2023/01/07 10:03:01;;;;;;;23.30;12.63;;;10.80;99.90;;;;;;5004845;28;20280;-75
2023/01/07 10:06:11;;;;;;;21.98;14.57;;;10.80;99.90;;;;;;5006321;28;20087;-77
2023/01/07 10:09:28;;;;;;;62.97;34.33;;;10.90;99.90;;;;;;4960062;28;20603;-74
2023/01/07 10:12:02;;;;;;;71.15;36.08;;;11.00;99.90;;;;;;4995208;28;20069;-76
2023/01/07 10:14:31;;;;;;;86.63;38.95;;;11.00;99.90;;;;;;5024932;28;20479;-78
2023/01/07 10:17:04;;;;;;;38.53;21.75;;;11.00;99.90;;;;;;5017099;28;20022;-81
2023/01/07 10:19:51;;;;;;;82.13;45.83;;;11.00;99.90;;;;;;5004123;28;20033;-81
2023/01/07 10:22:43;;;;;;;16.48;9.57;;;11.10;99.90;;;;;;5017451;28;20030;-82
2023/01/07 10:25:27;;;;;;;59.05;42.58;;;11.10;99.90;;;;;;4980100;28;20030;-79
2023/01/07 10:27:58;;;;;;;35.15;23.40;;;11.20;99.90;;;;;;5014036;28;20025;-78
2023/01/07 10:30:26;;;;;;;;;;;11.10;99.90;;;;;;5000035;28;20457;-80
2023/01/07 10:33:18;;;;;;;15.13;10.07;;;11.10;99.90;;;;;;5014825;28;20004;-81
2023/01/07 10:35:48;;;;;;;11.45;8.77;;;11.20;99.90;;;;;;5019319;28;20106;-79
2023/01/07 10:38:20;;;;;;;19.42;13.30;;;11.20;99.90;;;;;;4997339;28;20021;-79
2023/01/07 10:40:56;;;;;;;16.83;12.00;;;11.20;99.90;;;;;;5014594;28;20367;-82
2023/01/07 10:43:50;;;;;;;15.90;10.20;;;11.30;99.90;;;;;;4999346;28;20061;-79
2023/01/07 10:46:39;;;;;;;16.42;9.15;;;11.30;99.90;;;;;;4999248;28;20041;-79
2023/01/07 10:49:34;;;;;;;11.50;7.57;;;11.30;99.90;;;;;;4999345;28;20128;-79
2023/01/07 10:52:48;;;;;;;15.85;8.38;;;11.40;99.90;;;;;;4995151;28;20634;-79
2023/01/07 10:55:42;;;;;;;11.07;8.13;;;11.50;99.90;;;;;;4983959;28;20068;-80
2023/01/07 10:58:10;;;;;;;13.38;8.40;;;11.60;99.90;;;;;;5017701;28;20037;-79
2023/01/07 11:00:37;;;;;;;9.75;7.50;;;11.60;99.90;;;;;;5024972;28;20022;-80
2023/01/07 11:03:03;;;;;;;11.73;8.30;;;11.60;99.90;;;;;;5020320;28;20036;-82
2023/01/07 11:05:37;;;;;;;13.07;8.57;;;11.60;99.90;;;;;;5018379;28;20030;-79
2023/01/07 11:08:09;;;;;;;10.90;8.48;;;11.60;99.90;;;;;;4997669;28;20045;-78
2023/01/07 11:10:36;;;;;;;10.45;6.88;;;11.60;99.90;;;;;;5001038;28;20045;-80
2023/01/07 11:13:27;;;;;;;12.75;7.13;;;11.70;99.90;;;;;;5019507;28;20477;-80
2023/01/07 11:16:19;;;;;;;10.65;7.25;;;11.80;99.90;;;;;;5016585;28;20024;-79
2023/01/07 11:18:59;;;;;;;12.50;6.82;;;11.90;99.90;;;;;;4998530;28;20036;-78
2023/01/07 11:21:35;;;;;;;13.55;7.90;;;12.00;99.90;;;;;;5006831;28;20494;-79
2023/01/07 11:24:21;;;;;;;10.13;6.80;;;12.00;99.90;;;;;;5002973;28;20049;-79
2023/01/07 11:26:48;;;;;;;10.65;5.63;;;12.10;99.90;;;;;;4997072;28;20141;-79
2023/01/07 11:29:16;;;;;;;8.52;6.70;;;12.10;99.90;;;;;;5015386;28;20461;-78
2023/01/07 11:31:49;;;;;;;13.85;6.57;;;12.10;99.90;;;;;;5023234;28;20022;-80
2023/01/07 11:34:19;;;;;;;8.00;6.40;;;12.10;99.90;;;;;;5021339;28;20026;-80
2023/01/07 11:36:44;;;;;;;11.80;6.63;;;12.20;99.90;;;;;;5012255;28;20563;-79
2023/01/07 11:39:20;;;;;;;11.55;7.32;;;12.20;99.90;;;;;;5019794;28;20026;-78
2023/01/07 11:42:37;;;;;;;11.30;6.38;;;12.30;99.90;;;;;;5012838;28;20029;-82
2023/01/07 11:45:14;;;;;;;14.40;7.28;;;12.40;99.90;;;;;;4960827;28;20447;-82
2023/01/07 11:48:00;;;;;;;9.95;6.40;;;12.40;99.90;;;;;;5011458;28;20130;-78
2023/01/07 11:50:40;;;;;;;12.93;6.07;;;12.50;99.90;;;;;;5000222;28;20258;-80
2023/01/07 11:53:12;;;;;;;11.45;5.90;;;12.60;99.90;;;;;;5001867;28;20032;-84
2023/01/07 11:55:38;;;;;;;9.93;6.03;;;12.60;99.90;;;;;;5025036;28;20077;-78
2023/01/07 11:58:07;;;;;;;8.70;6.55;;;12.60;99.90;;;;;;4999523;28;20018;-80
2023/01/07 12:00:33;;;;;;;10.52;5.80;;;12.70;99.90;;;;;;5021531;28;20018;-81
2023/01/07 12:03:11;;;;;;;12.35;6.38;;;12.80;99.90;;;;;;5017876;28;20431;-81
2023/01/07 12:05:39;;;;;;;7.63;6.30;;;12.80;99.90;;;;;;5000244;28;20121;-80
2023/01/07 12:08:06;;;;;;;10.20;5.80;;;12.90;99.90;;;;;;5001725;28;20034;-80
2023/01/07 12:10:36;;;;;;;8.52;6.50;;;12.90;99.90;;;;;;5009655;28;20033;-82
2023/01/07 12:13:20;;;;;;;9.75;6.07;;;12.90;99.90;;;;;;5020976;28;20056;-81
2023/01/07 12:15:54;;;;;;;8.50;6.07;;;12.90;99.90;;;;;;5026753;28;20105;-80
2023/01/07 12:18:41;;;;;;;10.35;6.30;;;12.90;99.90;;;;;;5020644;28;20072;-78
2023/01/07 12:21:44;;;;;;;8.00;4.93;;;12.90;99.90;;;;;;5024294;28;20029;-76
2023/01/07 12:24:33;;;;;;;8.80;5.03;;;13.00;99.90;;;;;;5019602;28;20028;-81
2023/01/07 12:27:05;;;;;;;11.35;5.88;;;13.00;99.90;;;;;;5019463;28;20474;-80
2023/01/07 12:30:12;;;;;;;7.30;5.25;;;13.10;99.90;;;;;;4994409;28;20032;-80
2023/01/07 12:32:59;;;;;;;9.88;5.22;;;13.20;99.90;;;;;;5015079;28;20501;-79
2023/01/07 12:35:31;;;;;;;9.27;5.35;;;13.20;99.90;;;;;;5019544;28;20513;-78
2023/01/07 12:37:57;;;;;;;13.90;5.95;;;13.30;99.90;;;;;;5015372;28;20044;-81
2023/01/07 12:40:37;;;;;;;11.95;5.22;;;13.40;99.90;;;;;;5020788;28;20025;-80
2023/01/07 12:43:21;;;;;;;8.85;6.60;;;13.40;99.90;;;;;;5014621;28;20467;-79
2023/01/07 12:45:55;;;;;;;9.23;5.30;;;13.40;99.90;;;;;;5021804;28;20053;-79
2023/01/07 12:48:40;;;;;;;10.27;5.70;;;13.40;99.90;;;;;;4999325;28;20030;-79
2023/01/07 12:51:16;;;;;;;10.25;5.45;;;13.50;99.90;;;;;;5022278;28;20028;-79
2023/01/07 12:54:22;;;;;;;7.72;5.40;;;13.50;99.90;;;;;;5025638;28;20020;-80
2023/01/07 12:56:58;;;;;;;8.32;5.40;;;13.50;99.90;;;;;;5016429;28;20094;-79